Map

Track Data

SID SEASON NUMBER BASIN SUBBASIN NAME ISO_TIME NATURE LAT LON WMO_WIND WMO_PRES WMO_AGENCY TRACK_TYPE DIST2LAND LANDFALL IFLAG USA_AGENCY USA_ATCF_ID USA_LAT USA_LON USA_RECORD USA_STATUS USA_WIND USA_PRES USA_SSHS USA_R34_NE USA_R34_SE USA_R34_SW USA_R34_NW USA_R50_NE USA_R50_SE USA_R50_SW USA_R50_NW USA_R64_NE USA_R64_SE USA_R64_SW USA_R64_NW USA_POCI USA_ROCI USA_RMW USA_EYE TOKYO_LAT TOKYO_LON TOKYO_GRADE TOKYO_WIND TOKYO_PRES TOKYO_R50_DIR TOKYO_R50_LONG TOKYO_R50_SHORT TOKYO_R30_DIR TOKYO_R30_LONG TOKYO_R30_SHORT TOKYO_LAND CMA_LAT CMA_LON CMA_CAT CMA_WIND CMA_PRES HKO_LAT HKO_LON HKO_CAT HKO_WIND HKO_PRES NEWDELHI_LAT NEWDELHI_LON NEWDELHI_GRADE NEWDELHI_WIND NEWDELHI_PRES NEWDELHI_CI NEWDELHI_DP NEWDELHI_POCI REUNION_LAT REUNION_LON REUNION_TYPE REUNION_WIND REUNION_PRES REUNION_TNUM REUNION_CI REUNION_RMW REUNION_R34_NE REUNION_R34_SE REUNION_R34_SW REUNION_R34_NW REUNION_R50_NE REUNION_R50_SE REUNION_R50_SW REUNION_R50_NW REUNION_R64_NE REUNION_R64_SE REUNION_R64_SW REUNION_R64_NW BOM_LAT BOM_LON BOM_TYPE BOM_WIND BOM_PRES BOM_TNUM BOM_CI BOM_RMW BOM_R34_NE BOM_R34_SE BOM_R34_SW BOM_R34_NW BOM_R50_NE BOM_R50_SE BOM_R50_SW BOM_R50_NW BOM_R64_NE BOM_R64_SE BOM_R64_SW BOM_R64_NW BOM_ROCI BOM_POCI BOM_EYE BOM_POS_METHOD BOM_PRES_METHOD NADI_LAT NADI_LON NADI_CAT NADI_WIND NADI_PRES WELLINGTON_LAT WELLINGTON_LON WELLINGTON_WIND WELLINGTON_PRES DS824_LAT DS824_LON DS824_STAGE DS824_WIND DS824_PRES TD9636_LAT TD9636_LON TD9636_STAGE TD9636_WIND TD9636_PRES TD9635_LAT TD9635_LON TD9635_WIND TD9635_PRES TD9635_ROCI NEUMANN_LAT NEUMANN_LON NEUMANN_CLASS NEUMANN_WIND NEUMANN_PRES MLC_LAT MLC_LON MLC_CLASS MLC_WIND MLC_PRES USA_GUST BOM_GUST BOM_GUST_PER REUNION_GUST REUNION_GUST_PER USA_SEAHGT USA_SEARAD_NE USA_SEARAD_SE USA_SEARAD_SW USA_SEARAD_NW STORM_SPEED STORM_DIR
1887141N16092 1887 13 NI BB NOT_NAMED 1887-05-21 00:00:00 TS 15.9000 92.2000 main 214 214 _________O____ -1 15.9000 92.2000 TC 64 2 293
1887141N16092 1887 13 NI BB NOT_NAMED 1887-05-21 03:00:00 TS 15.9267 92.1267 main 224 224 _________PO___ -1 15.9400 92.0900 TC 64 15.9000 92.2000 4 2 301
1887141N16092 1887 13 NI BB NOT_NAMED 1887-05-21 06:00:00 TS 15.9900 92.0469 main 235 235 _________OP___ -1 16.0000 92.0000 TC 64 15.9750 92.1172 4 2 317
1887141N16092 1887 13 NI BB NOT_NAMED 1887-05-21 09:00:00 TS 16.0743 91.9832 main 235 235 _________PP___ -1 16.0925 91.9425 TC 64 16.0500 92.0376 4 2 327
1887141N16092 1887 13 NI BB NOT_NAMED 1887-05-21 12:00:00 TS 16.1625 91.9321 main 246 246 _________OP___ -1 16.2000 91.9000 TC 64 16.1250 91.9641 4 2 329
1887141N16092 1887 13 NI BB NOT_NAMED 1887-05-21 15:00:00 TS 16.2537 91.8750 main 248 248 _________PO___ -1 16.3075 91.8500 TC 64 16.2000 91.9000 4 2 328
1887141N16092 1887 13 NI BB NOT_NAMED 1887-05-21 18:00:00 TS 16.3375 91.8234 main 258 258 _________OP___ -1 16.4000 91.8000 TC 64 16.2750 91.8468 4 2 330
1887141N16092 1887 13 NI BB NOT_NAMED 1887-05-21 21:00:00 TS 16.4037 91.7787 main 260 260 _________PP___ -1 16.4575 91.7575 TC 64 16.3500 91.8000 4 2 322
1887141N16092 1887 13 NI BB NOT_NAMED 1887-05-22 00:00:00 TS 16.4625 91.7265 main 272 272 _________OP___ -1 16.5000 91.7000 TC 64 16.4250 91.7531 4 2 313
1887141N16092 1887 13 NI BB NOT_NAMED 1887-05-22 03:00:00 TS 16.5213 91.6500 main 272 272 _________PO___ -1 16.5425 91.6000 TC 64 16.5000 91.7000 4 2 308
1887141N16092 1887 13 NI BB NOT_NAMED 1887-05-22 06:00:00 TS 16.5855 91.5681 main 285 285 _________OP___ -1 16.6000 91.5000 TC 64 16.5709 91.6362 4 2 316
1887141N16092 1887 13 NI BB NOT_NAMED 1887-05-22 09:00:00 TS 16.6675 91.5075 main 298 298 _________PP___ -1 16.6925 91.4500 TC 64 16.6425 91.5650 4 2 326
1887141N16092 1887 13 NI BB NOT_NAMED 1887-05-22 12:00:00 TS 16.7589 91.4431 main 310 310 _________OP___ -1 16.8000 91.4000 TC 64 16.7178 91.4862 4 2 321
1887141N16092 1887 13 NI BB NOT_NAMED 1887-05-22 15:00:00 TS 16.8500 91.3538 main 312 312 _________PO___ -1 16.9000 91.3075 TC 64 16.8000 91.4000 4 3 316
1887141N16092 1887 13 NI BB NOT_NAMED 1887-05-22 18:00:00 TS 16.9464 91.2536 main 322 322 _________OP___ -1 17.0000 91.2000 TC 64 16.8928 91.3072 4 3 316
1887141N16092 1887 13 NI BB NOT_NAMED 1887-05-22 21:00:00 TS 17.0462 91.1537 main 334 334 _________PP___ -1 17.1000 91.1000 TC 64 16.9925 91.2075 4 3 316
1887141N16092 1887 13 NI BB NOT_NAMED 1887-05-23 00:00:00 TS 17.1480 91.0520 main 347 347 _________OP___ -1 17.2000 91.0000 TC 64 17.0959 91.1041 4 3 316
1887141N16092 1887 13 NI BB NOT_NAMED 1887-05-23 03:00:00 TS 17.2500 90.9500 main 342 349 _________PO___ -1 17.3000 90.9000 TC 64 17.2000 91.0000 4 3 316
1887141N16092 1887 13 NI BB NOT_NAMED 1887-05-23 06:00:00 TS 17.3459 90.8500 main 360 354 _________OP___ -1 17.4000 90.8000 TC 64 17.2919 90.8999 4 3 315
1887141N16092 1887 13 NI BB NOT_NAMED 1887-05-23 09:00:00 TS 17.4387 90.7499 main 363 358 _________PP___ -1 17.4925 90.7000 TC 64 17.3850 90.7999 4 3 316
1887141N16092 1887 13 NI BB NOT_NAMED 1887-05-23 12:00:00 TS 17.5428 90.6500 main 367 358 _________OP___ -1 17.6000 90.6000 TC 64 17.4856 90.6999 4 3 321
1887141N16092 1887 13 NI BB NOT_NAMED 1887-05-23 15:00:00 TS 17.6712 90.5500 main 358 358 _________PO___ -1 17.7425 90.5000 TC 64 17.6000 90.6000 4 3 326
1887141N16092 1887 13 NI BB NOT_NAMED 1887-05-23 18:00:00 TS 17.8137 90.4581 main 360 360 _________OP___ -1 17.9000 90.4000 TC 64 17.7274 90.5161 4 3 329
1887141N16092 1887 13 NI BB NOT_NAMED 1887-05-23 21:00:00 TS 17.9562 90.3723 main 352 352 _________PP___ -1 18.0425 90.3149 TC 64 17.8699 90.4297 4 4 329
1887141N16092 1887 13 NI BB NOT_NAMED 1887-05-24 00:00:00 TS 18.1137 90.2643 main 352 352 _________OP___ -1 18.2000 90.2000 TC 64 18.0274 90.3285 4 4 324
1887141N16092 1887 13 NI BB NOT_NAMED 1887-05-24 03:00:00 TS 18.2963 90.1075 main 352 347 _________PO___ -1 18.3925 90.0150 TC 64 18.2000 90.2000 4 5 319
1887141N16092 1887 13 NI BB NOT_NAMED 1887-05-24 06:00:00 TS 18.4928 89.9184 main 356 330 _________OP___ -1 18.6000 89.8000 TC 64 18.3856 90.0369 4 5 318
1887141N16092 1887 13 NI BB NOT_NAMED 1887-05-24 09:00:00 TS 18.6925 89.7262 main 330 304 _________PP___ -1 18.8000 89.6074 TC 64 18.5850 89.8450 4 6 317
1887141N16092 1887 13 NI BB NOT_NAMED 1887-05-24 12:00:00 TS 18.8959 89.5153 main 304 280 _________OP___ -1 19.0000 89.4000 TC 64 18.7918 89.6306 4 6 314
1887141N16092 1887 13 NI BB NOT_NAMED 1887-05-24 15:00:00 TS 19.1000 89.2787 main 280 257 _________PO___ -1 19.2000 89.1575 TC 64 19.0000 89.4000 4 6 311
1887141N16092 1887 13 NI BB NOT_NAMED 1887-05-24 18:00:00 TS 19.2980 89.0321 main 257 230 _________OP___ -1 19.4000 88.9000 TC 64 19.1959 89.1642 4 6 310
1887141N16092 1887 13 NI BB NOT_NAMED 1887-05-24 21:00:00 TS 19.4962 88.7824 main 230 192 _________PP___ -1 19.6000 88.6499 TC 64 19.3925 88.9148 4 6 310
1887141N16092 1887 13 NI BB NOT_NAMED 1887-05-25 00:00:00 TS 19.6964 88.5290 main 192 162 _________OP___ -1 19.8000 88.4000 TC 64 19.5928 88.6579 4 6 310
1887141N16092 1887 13 NI BB NOT_NAMED 1887-05-25 03:00:00 TS 19.8962 88.2749 main 162 123 _________PO___ -1 19.9925 88.1499 TC 64 19.8000 88.4000 4 6 311
1887141N16092 1887 13 NI BB NOT_NAMED 1887-05-25 06:00:00 TS 20.1089 88.0249 main 123 94 _________OP___ -1 20.2000 87.9000 TC 64 20.0177 88.1498 4 7 314
1887141N16092 1887 13 NI BB NOT_NAMED 1887-05-25 09:00:00 TS 20.3462 87.7749 main 94 53 _________PP___ -1 20.4500 87.6500 TC 64 20.2424 87.8998 4 7 316
1887141N16092 1887 13 NI BB NOT_NAMED 1887-05-25 12:00:00 TS 20.5854 87.5249 main 53 31 _________OP___ -1 20.7000 87.4000 TC 64 20.4708 87.6498 4 7 314
1887141N16092 1887 13 NI BB NOT_NAMED 1887-05-25 15:00:00 TS 20.8000 87.2749 main 31 15 _________PO___ -1 20.9000 87.1499 TC 56 20.7000 87.4000 4 6 312
1887141N16092 1887 13 NI BB NOT_NAMED 1887-05-25 18:00:00 TS 21.0084 87.0228 main 15 0 _________OP___ -1 21.1000 86.9000 TC 49 20.9168 87.1457 4 6 313
1887141N16092 1887 13 NI BB NOT_NAMED 1887-05-25 21:00:00 TS 21.2387 86.7710 main 0 0 _________PP___ -1 21.3425 86.6500 TC 41 21.1349 86.8921 4 7 315
1887141N16092 1887 13 NI BB NOT_NAMED 1887-05-26 00:00:00 TS 21.4803 86.5213 main 0 0 _________OP___ -1 21.6000 86.4000 TC 34 21.3606 86.6425 4 7 316
1887141N16092 1887 13 NI BB NOT_NAMED 1887-05-26 03:00:00 TS 21.7212 86.2712 main 0 0 _________PO___ -1 21.8425 86.1424 TC 33 21.6000 86.4000 2 7 317
1887141N16092 1887 13 NI BB NOT_NAMED 1887-05-26 06:00:00 TS 21.9722 86.0217 main 0 0 _________OP___ -1 22.1000 85.9000 TC 32 21.8444 86.1435 2 7 319
1887141N16092 1887 13 NI BB NOT_NAMED 1887-05-26 09:00:00 TS 22.2450 85.7876 main 0 0 _________PP___ -1 22.3850 85.6775 TC 31 22.1051 85.8976 2 7 325
1887141N16092 1887 13 NI BB NOT_NAMED 1887-05-26 12:00:00 TS 22.5441 85.5890 main 0 0 _________OP___ -1 22.7000 85.5000 TC 30 22.3882 85.6779 2 7 333
1887141N16092 1887 13 NI BB NOT_NAMED 1887-05-26 15:00:00 TS 22.8675 85.4387 main 0 0 _________PO___ -1 23.0350 85.3774 TC 30 22.7000 85.5000 1 7 342
1887141N16092 1887 13 NI BB NOT_NAMED 1887-05-26 18:00:00 TS 23.2474 85.3348 main 0 0 _________OP___ -1 23.4000 85.3000 TC 30 23.0948 85.3695 1 8 349
1887141N16092 1887 13 NI BB NOT_NAMED 1887-05-26 21:00:00 TS 23.6736 85.2587 main 0 0 _________PP___ -1 23.8375 85.2350 TC 30 23.5098 85.2823 1 8 352
1887141N16092 1887 13 NI BB NOT_NAMED 1887-05-27 00:00:00 TS 24.0474 85.2145 main 0 0 _________OP___ -1 24.2000 85.2000 TC 30 23.8949 85.2289 1 6 355
1887141N16092 1887 13 NI BB NOT_NAMED 1887-05-27 03:00:00 TS 24.2762 85.1962 main 0 0 _________PO___ -1 24.3525 85.1924 TC 30 24.2000 85.2000 1 3 358
1887141N16092 1887 13 NI BB NOT_NAMED 1887-05-27 06:00:00 TS 24.3806 85.1911 main 0 0 _________OP___ -1 24.4000 85.2000 TC 30 24.3612 85.1822 1 2 0
1887141N16092 1887 13 NI BB NOT_NAMED 1887-05-27 09:00:00 TS 24.4450 85.1923 main 0 0 _________PP___ -1 24.4500 85.2000 TC 30 24.4399 85.1847 1 1 0
1887141N16092 1887 13 NI BB NOT_NAMED 1887-05-27 12:00:00 TS 24.4869 85.1974 main 0 0 _________OP___ -1 24.5000 85.2000 TC 30 24.4737 85.1948 1 1 0
1887141N16092 1887 13 NI BB NOT_NAMED 1887-05-27 15:00:00 TS 24.5500 85.2037 main 0 0 _________PO___ -1 24.6000 85.2075 TC 30 24.5000 85.2000 1 1 0
1887141N16092 1887 13 NI BB NOT_NAMED 1887-05-27 18:00:00 TS 24.6136 85.1945 main 0 0 _________OP___ -1 24.7000 85.2000 TC 30 24.5488 85.1904 1 1 345
1887141N16092 1887 13 NI BB NOT_NAMED 1887-05-27 21:00:00 TS 24.6770 85.1646 main 0 0 _________PP___ -1 24.7625 85.1600 TC 30 24.6200 85.1677 1 1 330
1887141N16092 1887 13 NI BB NOT_NAMED 1887-05-28 00:00:00 TS 24.7375 85.1240 main 0 0 _________OP___ -1 24.8000 85.1000 TC 30 24.7063 85.1361 1 1 334
1887141N16092 1887 13 NI BB NOT_NAMED 1887-05-28 03:00:00 NR 24.8000 85.1000 main 0 __________O___ -1 TC 24.8000 85.1000 1 1 0

About IBTrACS Database

This database is a web-friendly format of International Best Track Archive for Climate Stewardship (IBTrACS), a global best track data archive curated by NOAA dating back to 1842.

Updated: 2021-11-26